PRIVATE WETTERSTATION BILLIGHEIM-ALLFELD                       ZURCK
Wetterdaten: Freitag, 03.03.2017
Datum Zeit Temp. A. Temp. A. min Temp. A. max Feuchte A. Luftdruck Regen Wind Richtung Richtung Sonnenschein ET Solar Taupunkt Windchill Windben Empfang
03.03.2017 00:00 4,1 C 4,1 C 4,1 C 74 % 1018,2 hPa 0,0 l/m 3,2 km/h (1 Bft) SO 135 0 min 0,025 mm 0 W/m -0,1 C 4,1 C 9,7 km/h (2 Bft) 98 %
03.03.2017 00:10 4,1 C 4,1 C 4,1 C 74 % 1018,1 hPa 0,0 l/m 0,0 km/h (0 Bft) S-SO 157 0 min 0,000 mm 0 W/m -0,1 C 4,1 C 4,8 km/h (1 Bft) 98 %
03.03.2017 00:20 4,2 C 4,1 C 4,2 C 73 % 1018,2 hPa 0,0 l/m 1,6 km/h (1 Bft) SO 135 0 min 0,000 mm 0 W/m -0,2 C 4,2 C 6,4 km/h (2 Bft) 98 %
03.03.2017 00:30 4,3 C 4,2 C 4,3 C 73 % 1018,0 hPa 0,0 l/m 1,6 km/h (1 Bft) SO 135 0 min 0,000 mm 0 W/m -0,1 C 4,3 C 4,8 km/h (1 Bft) 99 %
03.03.2017 00:40 4,1 C 4,1 C 4,3 C 73 % 1018,0 hPa 0,0 l/m 0,0 km/h (0 Bft) N 0 0 min 0,000 mm 0 W/m -0,3 C 4,1 C 0,0 km/h (0 Bft) 100 %
03.03.2017 00:50 3,7 C 3,7 C 4,1 C 74 % 1018,0 hPa 0,0 l/m 0,0 km/h (0 Bft) N 0 0 min 0,000 mm 0 W/m -0,5 C 3,7 C 0,0 km/h (0 Bft) 99 %
03.03.2017 01:00 3,2 C 3,2 C 3,7 C 77 % 1017,9 hPa 0,0 l/m 0,0 km/h (0 Bft) SO 135 0 min 0,025 mm 0 W/m -0,4 C 3,2 C 1,6 km/h (1 Bft) 100 %
03.03.2017 01:10 3,3 C 3,2 C 3,3 C 77 % 1017,8 hPa 0,0 l/m 0,0 km/h (0 Bft) N 0 0 min 0,000 mm 0 W/m -0,3 C 3,3 C 0,0 km/h (0 Bft) 100 %
03.03.2017 01:20 3,0 C 3,0 C 3,3 C 77 % 1017,6 hPa 0,0 l/m 0,0 km/h (0 Bft) N 0 0 min 0,000 mm 0 W/m -0,6 C 3,0 C 0,0 km/h (0 Bft) 100 %
03.03.2017 01:30 2,5 C 2,5 C 3,0 C 80 % 1017,6 hPa 0,0 l/m 0,0 km/h (0 Bft) SO 135 0 min 0,000 mm 0 W/m -0,6 C 2,5 C 4,8 km/h (1 Bft) 100 %
03.03.2017 01:40 2,4 C 2,4 C 2,5 C 80 % 1017,6 hPa 0,0 l/m 0,0 km/h (0 Bft) SO 135 0 min 0,000 mm 0 W/m -0,7 C 2,4 C 4,8 km/h (1 Bft) 100 %
03.03.2017 01:50 2,8 C 2,4 C 2,8 C 79 % 1017,5 hPa 0,0 l/m 0,0 km/h (0 Bft) SO 135 0 min 0,000 mm 0 W/m -0,5 C 2,8 C 6,4 km/h (2 Bft) 100 %
03.03.2017 02:00 2,8 C 2,7 C 2,8 C 78 % 1017,4 hPa 0,0 l/m 0,0 km/h (0 Bft) SO 135 0 min 0,000 mm 0 W/m -0,6 C 2,8 C 4,8 km/h (1 Bft) 100 %
03.03.2017 02:10 2,3 C 2,3 C 2,8 C 80 % 1017,5 hPa 0,0 l/m 0,0 km/h (0 Bft) N 0 0 min 0,000 mm 0 W/m -0,8 C 2,3 C 0,0 km/h (0 Bft) 100 %
03.03.2017 02:20 1,9 C 1,9 C 2,3 C 81 % 1017,4 hPa 0,0 l/m 0,0 km/h (0 Bft) N 0 0 min 0,000 mm 0 W/m -1,0 C 1,9 C 0,0 km/h (0 Bft) 90 %
03.03.2017 02:30 1,4 C 1,4 C 1,9 C 83 % 1017,2 hPa 0,0 l/m 0,0 km/h (0 Bft) N 0 0 min 0,000 mm 0 W/m -1,2 C 1,4 C 0,0 km/h (0 Bft) 99 %
03.03.2017 02:40 1,3 C 1,3 C 1,4 C 84 % 1017,1 hPa 0,0 l/m 0,0 km/h (0 Bft) N 0 0 min 0,000 mm 0 W/m -1,1 C 1,3 C 0,0 km/h (0 Bft) 100 %
03.03.2017 02:50 1,1 C 1,1 C 1,3 C 85 % 1017,2 hPa 0,0 l/m 0,0 km/h (0 Bft) N 0 0 min 0,000 mm 0 W/m -1,1 C 1,1 C 0,0 km/h (0 Bft) 100 %
03.03.2017 03:00 0,9 C 0,9 C 1,1 C 85 % 1017,1 hPa 0,0 l/m 0,0 km/h (0 Bft) N 0 0 min 0,000 mm 0 W/m -1,3 C 0,9 C 0,0 km/h (0 Bft) 100 %
03.03.2017 03:10 0,7 C 0,7 C 0,9 C 86 % 1017,1 hPa 0,0 l/m 0,0 km/h (0 Bft) SO 135 0 min 0,000 mm 0 W/m -1,4 C 0,7 C 1,6 km/h (1 Bft) 100 %
03.03.2017 03:20 0,6 C 0,6 C 0,7 C 87 % 1016,9 hPa 0,0 l/m 0,0 km/h (0 Bft) N 0 0 min 0,000 mm 0 W/m -1,3 C 0,6 C 0,0 km/h (0 Bft) 100 %
03.03.2017 03:30 0,4 C 0,4 C 0,6 C 88 % 1016,7 hPa 0,0 l/m 0,0 km/h (0 Bft) N 0 0 min 0,000 mm 0 W/m -1,3 C 0,4 C 0,0 km/h (0 Bft) 100 %
03.03.2017 03:40 0,4 C 0,4 C 0,5 C 88 % 1016,5 hPa 0,0 l/m 0,0 km/h (0 Bft) N 0 0 min 0,000 mm 0 W/m -1,3 C 0,4 C 0,0 km/h (0 Bft) 100 %
03.03.2017 03:50 0,3 C 0,3 C 0,4 C 88 % 1016,5 hPa 0,0 l/m 0,0 km/h (0 Bft) N 0 0 min 0,000 mm 0 W/m -1,4 C 0,3 C 0,0 km/h (0 Bft) 90 %
03.03.2017 04:00 0,2 C 0,2 C 0,3 C 88 % 1016,5 hPa 0,0 l/m 0,0 km/h (0 Bft) N 0 0 min 0,000 mm 0 W/m -1,5 C 0,2 C 0,0 km/h (0 Bft) 100 %
03.03.2017 04:10 0,0 C 0,0 C 0,2 C 88 % 1016,6 hPa 0,0 l/m 0,0 km/h (0 Bft) N 0 0 min 0,000 mm 0 W/m -1,7 C 0,0 C 0,0 km/h (0 Bft) 100 %
03.03.2017 04:20 -0,1 C -0,1 C 0,0 C 88 % 1016,5 hPa 0,0 l/m 0,0 km/h (0 Bft) N 0 0 min 0,000 mm 0 W/m -1,8 C -0,1 C 0,0 km/h (0 Bft) 100 %
03.03.2017 04:30 -0,2 C -0,2 C -0,1 C 89 % 1016,3 hPa 0,0 l/m 0,0 km/h (0 Bft) N 0 0 min 0,000 mm 0 W/m -1,8 C -0,2 C 0,0 km/h (0 Bft) 100 %
03.03.2017 04:40 -0,3 C -0,3 C -0,2 C 89 % 1016,2 hPa 0,0 l/m 0,0 km/h (0 Bft) N 0 0 min 0,000 mm 0 W/m -1,9 C -0,3 C 0,0 km/h (0 Bft) 100 %
03.03.2017 04:50 -0,2 C -0,3 C -0,2 C 90 % 1016,0 hPa 0,0 l/m 0,0 km/h (0 Bft) N 0 0 min 0,000 mm 0 W/m -1,6 C -0,2 C 0,0 km/h (0 Bft) 100 %
03.03.2017 05:00 -0,2 C -0,2 C -0,2 C 90 % 1015,7 hPa 0,0 l/m 0,0 km/h (0 Bft) N 0 0 min 0,000 mm 0 W/m -1,6 C -0,2 C 0,0 km/h (0 Bft) 99 %
03.03.2017 05:10 -0,2 C -0,3 C -0,2 C 90 % 1015,6 hPa 0,0 l/m 0,0 km/h (0 Bft) N 0 0 min 0,000 mm 0 W/m -1,6 C -0,2 C 0,0 km/h (0 Bft) 89 %
03.03.2017 05:20 -0,4 C -0,4 C -0,2 C 89 % 1015,7 hPa 0,0 l/m 0,0 km/h (0 Bft) N 0 0 min 0,000 mm 0 W/m -2,0 C -0,4 C 0,0 km/h (0 Bft) 98 %
03.03.2017 05:30 -0,6 C -0,6 C -0,4 C 90 % 1015,7 hPa 0,0 l/m 0,0 km/h (0 Bft) N 0 0 min 0,000 mm 0 W/m -2,0 C -0,6 C 0,0 km/h (0 Bft) 97 %
03.03.2017 05:40 -0,7 C -0,7 C -0,6 C 90 % 1015,5 hPa 0,0 l/m 0,0 km/h (0 Bft) N 0 0 min 0,000 mm 0 W/m -2,1 C -0,7 C 0,0 km/h (0 Bft) 98 %
03.03.2017 05:50 -0,7 C -0,7 C -0,7 C 90 % 1015,3 hPa 0,0 l/m 0,0 km/h (0 Bft) N 0 0 min 0,000 mm 0 W/m -2,1 C -0,7 C 0,0 km/h (0 Bft) 97 %
03.03.2017 06:00 -0,7 C -0,7 C -0,7 C 90 % 1014,8 hPa 0,0 l/m 0,0 km/h (0 Bft) N 0 0 min 0,000 mm 0 W/m -2,1 C -0,7 C 0,0 km/h (0 Bft) 98 %
03.03.2017 06:10 -0,8 C -0,8 C -0,7 C 90 % 1014,7 hPa 0,0 l/m 0,0 km/h (0 Bft) SO 135 0 min 0,000 mm 0 W/m -2,2 C -0,8 C 3,2 km/h (1 Bft) 97 %
03.03.2017 06:20 -0,8 C -0,8 C -0,8 C 90 % 1014,6 hPa 0,0 l/m 0,0 km/h (0 Bft) SO 135 0 min 0,000 mm 0 W/m -2,2 C -0,8 C 3,2 km/h (1 Bft) 97 %
03.03.2017 06:30 -0,8 C -0,9 C -0,8 C 91 % 1014,5 hPa 0,0 l/m 1,6 km/h (1 Bft) O 90 0 min 0,000 mm 0 W/m -2,1 C -0,8 C 6,4 km/h (2 Bft) 98 %
03.03.2017 06:40 -0,8 C -0,8 C -0,8 C 91 % 1014,5 hPa 0,0 l/m 0,0 km/h (0 Bft) N 0 0 min 0,000 mm 0 W/m -2,1 C -0,8 C 0,0 km/h (0 Bft) 97 %
03.03.2017 06:50 -0,7 C -0,8 C -0,7 C 91 % 1014,4 hPa 0,0 l/m 0,0 km/h (0 Bft) O-NO 67 0 min 0,000 mm 0 W/m -2,0 C -0,7 C 1,6 km/h (1 Bft) 98 %
03.03.2017 07:00 -0,6 C -0,7 C -0,6 C 91 % 1014,3 hPa 0,0 l/m 0,0 km/h (0 Bft) N 0 0 min 0,000 mm 0 W/m -1,9 C -0,6 C 0,0 km/h (0 Bft) 97 %
03.03.2017 07:10 -0,5 C -0,6 C -0,5 C 91 % 1014,2 hPa 0,0 l/m 0,0 km/h (0 Bft) N 0 0 min 0,000 mm 0 W/m -1,8 C -0,5 C 0,0 km/h (0 Bft) 99 %
03.03.2017 07:20 -0,5 C -0,6 C -0,5 C 91 % 1014,1 hPa 0,0 l/m 0,0 km/h (0 Bft) N 0 0 min 0,000 mm 0 W/m -1,8 C -0,5 C 0,0 km/h (0 Bft) 100 %
03.03.2017 07:30 -0,5 C -0,6 C -0,5 C 91 % 1014,1 hPa 0,0 l/m 0,0 km/h (0 Bft) N 0 0 min 0,000 mm 0 W/m -1,8 C -0,5 C 0,0 km/h (0 Bft) 100 %
03.03.2017 07:40 -0,5 C -0,6 C -0,5 C 91 % 1014,0 hPa 0,0 l/m 0,0 km/h (0 Bft) N 0 0 min 0,000 mm 0 W/m -1,8 C -0,5 C 0,0 km/h (0 Bft) 100 %
03.03.2017 07:50 -0,5 C -0,6 C -0,5 C 91 % 1013,6 hPa 0,0 l/m 0,0 km/h (0 Bft) NO 45 0 min 0,000 mm 0 W/m -1,8 C -0,5 C 3,2 km/h (1 Bft) 100 %
03.03.2017 08:00 -0,5 C -0,6 C -0,5 C 91 % 1013,5 hPa 0,0 l/m 0,0 km/h (0 Bft) O-NO 67 0 min 0,000 mm 0 W/m -1,8 C -0,5 C 9,7 km/h (2 Bft) 100 %
03.03.2017 08:10 -0,5 C -0,6 C -0,5 C 91 % 1013,5 hPa 0,0 l/m 0,0 km/h (0 Bft) SO 135 0 min 0,000 mm 0 W/m -1,8 C -0,5 C 11,3 km/h (2 Bft) 100 %
03.03.2017 08:20 -0,5 C -0,6 C -0,5 C 91 % 1013,4 hPa 0,0 l/m 1,6 km/h (1 Bft) SO 135 0 min 0,000 mm 0 W/m -1,8 C -0,5 C 9,7 km/h (2 Bft) 100 %
03.03.2017 08:30 -0,5 C -0,6 C -0,5 C 91 % 1013,5 hPa 0,0 l/m 1,6 km/h (1 Bft) SO 135 0 min 0,000 mm 0 W/m -1,8 C -0,5 C 14,5 km/h (3 Bft) 100 %
03.03.2017 08:40 -0,5 C -0,6 C -0,5 C 91 % 1013,6 hPa 0,0 l/m 0,0 km/h (0 Bft) SO 135 0 min 0,000 mm 0 W/m -1,8 C -0,5 C 4,8 km/h (1 Bft) 100 %
03.03.2017 08:50 -0,5 C -0,6 C -0,5 C 91 % 1013,4 hPa 0,0 l/m 0,0 km/h (0 Bft) S-SO 157 0 min 0,000 mm 0 W/m -1,8 C -0,5 C 4,8 km/h (1 Bft) 100 %
03.03.2017 09:00 -0,5 C -0,6 C -0,5 C 91 % 1013,3 hPa 0,0 l/m 0,0 km/h (0 Bft) N 0 0 min 0,000 mm 0 W/m -1,8 C -0,5 C 0,0 km/h (0 Bft) 100 %
03.03.2017 09:10 -0,5 C -0,6 C -0,5 C 91 % 1013,0 hPa 0,0 l/m 0,0 km/h (0 Bft) SO 135 0 min 0,000 mm 0 W/m -1,8 C -0,5 C 4,8 km/h (1 Bft) 100 %
03.03.2017 09:20 -0,5 C -0,6 C -0,5 C 91 % 1013,0 hPa 0,0 l/m 1,6 km/h (1 Bft) S-SO 157 0 min 0,000 mm 0 W/m -1,8 C -0,5 C 8,0 km/h (2 Bft) 100 %
03.03.2017 09:30 -0,5 C -0,6 C -0,5 C 91 % 1012,9 hPa 0,0 l/m 0,0 km/h (0 Bft) N 0 0 min 0,000 mm 0 W/m -1,8 C -0,5 C 0,0 km/h (0 Bft) 100 %
03.03.2017 09:40 -0,5 C -0,6 C -0,5 C 91 % 1012,5 hPa 0,0 l/m 4,8 km/h (1 Bft) O-SO 112 0 min 0,000 mm 0 W/m -1,8 C -0,5 C 17,7 km/h (3 Bft) 99 %
03.03.2017 09:50 -0,5 C -0,6 C -0,5 C 91 % 1012,5 hPa 0,0 l/m 4,8 km/h (1 Bft) SO 135 0 min 0,000 mm 0 W/m -1,8 C -0,5 C 12,9 km/h (3 Bft) 100 %
03.03.2017 10:00 -0,5 C -0,6 C -0,5 C 91 % 1012,3 hPa 0,0 l/m 4,8 km/h (1 Bft) O-SO 112 0 min 0,000 mm 0 W/m -1,8 C -0,5 C 12,9 km/h (3 Bft) 100 %
03.03.2017 10:10 -0,5 C -0,6 C -0,5 C 91 % 1011,9 hPa 0,0 l/m 4,8 km/h (1 Bft) O-SO 112 0 min 0,000 mm 0 W/m -1,8 C -0,5 C 17,7 km/h (3 Bft) 100 %
03.03.2017 10:20 -0,5 C -0,6 C -0,5 C 91 % 1011,8 hPa 0,0 l/m 4,8 km/h (1 Bft) SO 135 0 min 0,000 mm 0 W/m -1,8 C -0,5 C 11,3 km/h (2 Bft) 100 %
03.03.2017 10:30 7,6 C 7,3 C 7,6 C 61 % 1011,8 hPa 0,0 l/m 4,8 km/h (1 Bft) SO 135 10 min 0,000 mm 434 W/m 0,6 C 7,6 C 9,7 km/h (2 Bft) 100 %
03.03.2017 10:40 8,0 C 7,6 C 8,0 C 62 % 1011,5 hPa 0,0 l/m 1,6 km/h (1 Bft) SO 135 10 min 0,000 mm 469 W/m 1,2 C 8,0 C 16,1 km/h (3 Bft) 100 %
03.03.2017 10:50 8,3 C 8,0 C 8,3 C 60 % 1011,5 hPa 0,0 l/m 3,2 km/h (1 Bft) O-SO 112 10 min 0,000 mm 475 W/m 1,0 C 8,3 C 14,5 km/h (3 Bft) 100 %
03.03.2017 11:00 8,4 C 8,0 C 8,4 C 62 % 1011,4 hPa 0,0 l/m 3,0 km/h (1 Bft) S-SO 153 10 min 0,128 mm 309 W/m 1,6 C 8,4 C 11,3 km/h (2 Bft) 95 %
03.03.2017 11:10 8,4 C 8,3 C 8,4 C 61 % 1011,5 hPa 0,0 l/m 2,3 km/h (1 Bft) S 172 10 min 0,000 mm 366 W/m 1,3 C 8,4 C 14,5 km/h (3 Bft) 97 %
03.03.2017 11:20 8,7 C 8,4 C 8,7 C 58 % 1011,5 hPa 0,0 l/m 4,8 km/h (1 Bft) SO 131 10 min 0,000 mm 480 W/m 0,9 C 8,7 C 16,1 km/h (3 Bft) 97 %
03.03.2017 11:31 8,9 C 8,7 C 8,9 C 59 % 1011,2 hPa 0,0 l/m 4,7 km/h (1 Bft) O-SO 121 11 min 0,000 mm 332 W/m 1,3 C 8,9 C 11,3 km/h (2 Bft) 98 %
03.03.2017 11:40 9,1 C 8,8 C 9,1 C 58 % 1011,3 hPa 0,0 l/m 3,5 km/h (1 Bft) S-SO 153 9 min 0,000 mm 371 W/m 1,3 C 9,1 C 11,3 km/h (2 Bft) 97 %
03.03.2017 11:50 9,1 C 9,1 C 9,2 C 58 % 1010,9 hPa 0,0 l/m 1,7 km/h (1 Bft) SO 130 10 min 0,000 mm 283 W/m 1,3 C 9,1 C 9,7 km/h (2 Bft) 98 %
03.03.2017 12:00 9,2 C 9,1 C 9,2 C 57 % 1010,7 hPa 0,0 l/m 3,1 km/h (1 Bft) S-SO 165 10 min 0,178 mm 352 W/m 1,1 C 9,2 C 17,7 km/h (3 Bft) 97 %
03.03.2017 12:10 9,4 C 9,2 C 9,5 C 56 % 1010,7 hPa 0,0 l/m 3,4 km/h (1 Bft) O-SO 123 10 min 0,000 mm 352 W/m 1,1 C 9,4 C 14,5 km/h (3 Bft) 98 %
03.03.2017 12:20 9,8 C 9,4 C 9,8 C 53 % 1010,3 hPa 0,0 l/m 3,7 km/h (1 Bft) SO 146 10 min 0,000 mm 497 W/m 0,7 C 9,8 C 19,3 km/h (3 Bft) 97 %
03.03.2017 12:30 10,1 C 9,8 C 10,1 C 52 % 1010,2 hPa 0,0 l/m 8,2 km/h (2 Bft) SO 138 10 min 0,000 mm 394 W/m 0,7 C 8,8 C 20,9 km/h (4 Bft) 98 %
03.03.2017 12:40 10,1 C 10,0 C 10,1 C 55 % 1010,0 hPa 0,0 l/m 6,6 km/h (2 Bft) SO 140 10 min 0,000 mm 475 W/m 1,5 C 10,0 C 16,1 km/h (3 Bft) 97 %
03.03.2017 12:50 10,5 C 10,1 C 10,5 C 54 % 1009,8 hPa 0,0 l/m 2,2 km/h (1 Bft) S-SO 161 10 min 0,000 mm 443 W/m 1,6 C 10,5 C 11,3 km/h (2 Bft) 97 %
03.03.2017 13:00 10,8 C 10,5 C 10,8 C 49 % 1009,5 hPa 0,0 l/m 4,9 km/h (1 Bft) SO 139 10 min 0,228 mm 432 W/m 0,5 C 10,8 C 22,5 km/h (4 Bft) 98 %
03.03.2017 13:10 10,8 C 10,8 C 10,8 C 51 % 1009,4 hPa 0,0 l/m 4,6 km/h (1 Bft) S-SO 148 10 min 0,000 mm 385 W/m 1,1 C 10,8 C 16,1 km/h (3 Bft) 97 %
03.03.2017 13:20 10,8 C 10,8 C 10,8 C 50 % 1009,1 hPa 0,0 l/m 5,4 km/h (1 Bft) S 188 10 min 0,000 mm 258 W/m 0,8 C 10,8 C 19,3 km/h (3 Bft) 98 %
03.03.2017 13:30 10,8 C 10,8 C 10,9 C 49 % 1009,1 hPa 0,0 l/m 4,0 km/h (1 Bft) SO 131 10 min 0,000 mm 237 W/m 0,5 C 10,8 C 11,3 km/h (2 Bft) 97 %
03.03.2017 13:40 10,6 C 10,6 C 10,8 C 51 % 1008,7 hPa 0,0 l/m 2,8 km/h (1 Bft) SO 132 10 min 0,000 mm 253 W/m 0,9 C 10,6 C 11,3 km/h (2 Bft) 98 %
03.03.2017 13:50 10,7 C 10,6 C 10,7 C 49 % 1008,4 hPa 0,0 l/m 3,1 km/h (1 Bft) SO 138 10 min 0,000 mm 260 W/m 0,4 C 10,7 C 11,3 km/h (2 Bft) 97 %
03.03.2017 14:00 10,7 C 10,7 C 10,8 C 48 % 1008,4 hPa 0,0 l/m 1,5 km/h (1 Bft) O-SO 117 10 min 0,000 mm 218 W/m 0,1 C 10,7 C 9,7 km/h (2 Bft) 97 %
03.03.2017 14:10 10,7 C 10,7 C 10,7 C 49 % 1008,0 hPa 0,0 l/m 1,0 km/h (0 Bft) S-SO 160 10 min 0,152 mm 190 W/m 0,4 C 10,7 C 9,7 km/h (2 Bft) 97 %
03.03.2017 14:20 10,7 C 10,6 C 10,7 C 51 % 1008,0 hPa 0,0 l/m 2,3 km/h (1 Bft) S 172 10 min 0,001 mm 234 W/m 1,0 C 10,7 C 11,3 km/h (2 Bft) 97 %
03.03.2017 14:30 10,8 C 10,7 C 10,8 C 49 % 1007,9 hPa 0,0 l/m 3,8 km/h (1 Bft) SO 130 10 min 0,000 mm 221 W/m 0,5 C 10,8 C 9,7 km/h (2 Bft) 97 %
03.03.2017 14:40 10,8 C 10,8 C 10,9 C 52 % 1007,8 hPa 0,0 l/m 1,6 km/h (1 Bft) S-SO 166 10 min 0,000 mm 204 W/m 1,3 C 10,8 C 9,7 km/h (2 Bft) 98 %
03.03.2017 14:50 11,0 C 10,8 C 11,0 C 48 % 1007,6 hPa 0,0 l/m 0,5 km/h (0 Bft) S-SO 153 10 min 0,000 mm 183 W/m 0,4 C 11,0 C 9,7 km/h (2 Bft) 97 %
03.03.2017 15:00 11,0 C 11,0 C 11,0 C 48 % 1007,4 hPa 0,0 l/m 0,5 km/h (0 Bft) SO 138 10 min 0,101 mm 178 W/m 0,4 C 11,0 C 4,8 km/h (1 Bft) 97 %
03.03.2017 15:10 11,1 C 11,0 C 11,1 C 49 % 1007,3 hPa 0,0 l/m 0,5 km/h (0 Bft) SO 126 10 min 0,000 mm 176 W/m 0,8 C 11,1 C 9,7 km/h (2 Bft) 97 %
03.03.2017 15:20 11,1 C 11,1 C 11,1 C 48 % 1007,0 hPa 0,0 l/m 1,4 km/h (1 Bft) S-SO 162 10 min 0,000 mm 160 W/m 0,5 C 11,1 C 11,3 km/h (2 Bft) 98 %
03.03.2017 15:30 11,1 C 11,1 C 11,1 C 49 % 1006,8 hPa 0,0 l/m 1,4 km/h (1 Bft) S-SO 149 0 min 0,000 mm 151 W/m 0,8 C 11,1 C 11,3 km/h (2 Bft) 97 %
03.03.2017 15:40 11,2 C 11,1 C 11,2 C 48 % 1006,9 hPa 0,0 l/m 1,3 km/h (1 Bft) S-SO 150 0 min 0,000 mm 137 W/m 0,6 C 11,2 C 8,0 km/h (2 Bft) 98 %
03.03.2017 15:50 11,2 C 11,2 C 11,3 C 50 % 1006,7 hPa 0,0 l/m 0,0 km/h (0 Bft) SO 133 0 min 0,000 mm 123 W/m 1,2 C 11,2 C 1,6 km/h (1 Bft) 97 %
03.03.2017 16:00 11,3 C 11,2 C 11,3 C 48 % 1006,5 hPa 0,0 l/m 0,0 km/h (0 Bft) SO 126 0 min 0,076 mm 132 W/m 0,7 C 11,3 C 1,6 km/h (1 Bft) 97 %
03.03.2017 16:10 11,3 C 11,3 C 11,3 C 48 % 1006,1 hPa 0,0 l/m 0,0 km/h (0 Bft) SO 126 0 min 0,000 mm 121 W/m 0,7 C 11,3 C 1,6 km/h (1 Bft) 98 %
03.03.2017 16:20 11,4 C 11,3 C 11,4 C 47 % 1005,8 hPa 0,0 l/m 0,2 km/h (0 Bft) O-SO 105 0 min 0,000 mm 95 W/m 0,5 C 11,4 C 6,4 km/h (2 Bft) 97 %
03.03.2017 16:30 11,4 C 11,4 C 11,4 C 49 % 1005,7 hPa 0,0 l/m 0,0 km/h (0 Bft) O-SO 105 0 min 0,000 mm 88 W/m 1,1 C 11,4 C 0,0 km/h (0 Bft) 98 %
03.03.2017 16:40 11,3 C 11,3 C 11,4 C 52 % 1005,6 hPa 0,0 l/m 0,0 km/h (0 Bft) O 98 0 min 0,000 mm 81 W/m 1,8 C 11,3 C 1,6 km/h (1 Bft) 97 %
03.03.2017 16:50 11,2 C 11,2 C 11,3 C 57 % 1005,2 hPa 0,0 l/m 0,0 km/h (0 Bft) O 99 0 min 0,000 mm 72 W/m 3,0 C 11,2 C 1,6 km/h (1 Bft) 98 %
03.03.2017 17:00 10,9 C 10,9 C 11,2 C 53 % 1005,4 hPa 0,0 l/m 2,0 km/h (1 Bft) O-SO 113 0 min 0,051 mm 56 W/m 1,7 C 10,9 C 9,7 km/h (2 Bft) 97 %
03.03.2017 17:10 10,8 C 10,8 C 11,0 C 55 % 1005,4 hPa 0,0 l/m 1,4 km/h (1 Bft) SO 130 0 min 0,000 mm 46 W/m 2,1 C 10,8 C 11,3 km/h (2 Bft) 98 %
03.03.2017 17:20 10,6 C 10,6 C 10,8 C 56 % 1005,1 hPa 0,0 l/m 0,0 km/h (0 Bft) O-SO 118 0 min 0,000 mm 33 W/m 2,2 C 10,6 C 3,2 km/h (1 Bft) 97 %
03.03.2017 17:30 10,3 C 10,3 C 10,6 C 55 % 1004,8 hPa 0,0 l/m 0,1 km/h (0 Bft) O-NO 63 0 min 0,000 mm 25 W/m 1,7 C 10,3 C 4,8 km/h (1 Bft) 97 %
03.03.2017 17:40 10,1 C 10,1 C 10,3 C 55 % 1004,7 hPa 0,0 l/m 0,7 km/h (0 Bft) O-SO 109 0 min 0,000 mm 16 W/m 1,5 C 10,1 C 8,0 km/h (2 Bft) 98 %
03.03.2017 17:50 9,9 C 9,9 C 10,1 C 55 % 1004,6 hPa 0,0 l/m 0,0 km/h (0 Bft) O-SO 111 0 min 0,000 mm 12 W/m 1,3 C 9,9 C 1,6 km/h (1 Bft) 97 %
03.03.2017 18:00 9,7 C 9,7 C 9,9 C 56 % 1004,5 hPa 0,0 l/m 0,6 km/h (0 Bft) O 90 0 min 0,026 mm 0 W/m 1,4 C 9,7 C 8,0 km/h (2 Bft) 98 %
03.03.2017 18:10 9,4 C 9,4 C 9,7 C 57 % 1004,5 hPa 0,0 l/m 0,2 km/h (0 Bft) O-SO 106 0 min 0,000 mm 0 W/m 1,3 C 9,4 C 4,8 km/h (1 Bft) 97 %
03.03.2017 18:20 9,1 C 9,1 C 9,4 C 59 % 1004,4 hPa 0,0 l/m 0,0 km/h (0 Bft) W-SW 242 0 min 0,000 mm 0 W/m 1,5 C 9,1 C 0,0 km/h (0 Bft) 97 %
03.03.2017 18:30 8,8 C 8,8 C 9,1 C 61 % 1004,3 hPa 0,0 l/m 0,0 km/h (0 Bft) W-SW 257 0 min 0,000 mm 0 W/m 1,7 C 8,8 C 0,0 km/h (0 Bft) 98 %
03.03.2017 18:40 8,4 C 8,4 C 8,8 C 63 % 1004,2 hPa 0,0 l/m 0,2 km/h (0 Bft) W-NW 299 0 min 0,000 mm 0 W/m 1,8 C 8,4 C 4,8 km/h (1 Bft) 97 %
03.03.2017 18:50 8,2 C 8,2 C 8,4 C 65 % 1004,1 hPa 0,0 l/m 0,0 km/h (0 Bft) W-NW 303 0 min 0,000 mm 0 W/m 2,0 C 8,2 C 0,0 km/h (0 Bft) 98 %
03.03.2017 19:00 7,9 C 7,9 C 8,2 C 66 % 1003,9 hPa 0,0 l/m 0,0 km/h (0 Bft) W-NW 303 0 min 0,000 mm 0 W/m 1,9 C 7,9 C 0,0 km/h (0 Bft) 99 %
03.03.2017 19:10 7,7 C 7,7 C 7,9 C 66 % 1003,9 hPa 0,0 l/m 0,0 km/h (0 Bft) W-NW 303 0 min 0,000 mm 0 W/m 1,8 C 7,7 C 0,0 km/h (0 Bft) 100 %
03.03.2017 19:20 7,7 C 7,7 C 7,7 C 67 % 1003,7 hPa 0,0 l/m 0,0 km/h (0 Bft) W-NW 303 0 min 0,000 mm 0 W/m 2,0 C 7,7 C 0,0 km/h (0 Bft) 100 %
03.03.2017 19:30 7,6 C 7,6 C 7,7 C 66 % 1003,7 hPa 0,0 l/m 0,0 km/h (0 Bft) W-NW 303 0 min 0,000 mm 0 W/m 1,7 C 7,6 C 0,0 km/h (0 Bft) 100 %
03.03.2017 19:40 7,4 C 7,4 C 7,6 C 68 % 1003,5 hPa 0,0 l/m 0,0 km/h (0 Bft) W-NW 303 0 min 0,000 mm 0 W/m 1,9 C 7,4 C 0,0 km/h (0 Bft) 100 %
03.03.2017 19:50 7,3 C 7,3 C 7,4 C 68 % 1003,4 hPa 0,0 l/m 2,3 km/h (1 Bft) W-NW 303 0 min 0,000 mm 0 W/m 1,8 C 7,3 C 6,4 km/h (2 Bft) 91 %
03.03.2017 20:00 7,0 C 7,0 C 7,3 C 70 % 1003,1 hPa 0,0 l/m 0,1 km/h (0 Bft) W-NW 303 0 min 0,025 mm 0 W/m 1,9 C 7,0 C 3,2 km/h (1 Bft) 100 %
03.03.2017 20:10 6,7 C 6,7 C 7,0 C 72 % 1003,0 hPa 0,0 l/m 0,0 km/h (0 Bft) W-NW 303 0 min 0,000 mm 0 W/m 2,0 C 6,7 C 0,0 km/h (0 Bft) 99 %
03.03.2017 20:20 6,4 C 6,4 C 6,7 C 72 % 1003,0 hPa 0,0 l/m 0,9 km/h (0 Bft) W-NW 303 0 min 0,000 mm 0 W/m 1,7 C 6,4 C 4,8 km/h (1 Bft) 100 %
03.03.2017 20:30 6,3 C 6,3 C 6,4 C 72 % 1002,9 hPa 0,0 l/m 1,3 km/h (1 Bft) NW 304 0 min 0,000 mm 0 W/m 1,6 C 6,3 C 6,4 km/h (2 Bft) 100 %
03.03.2017 20:40 6,2 C 6,2 C 6,3 C 72 % 1002,8 hPa 0,0 l/m 0,0 km/h (0 Bft) NW 306 0 min 0,000 mm 0 W/m 1,5 C 6,2 C 1,6 km/h (1 Bft) 100 %
03.03.2017 20:50 6,2 C 6,2 C 6,2 C 72 % 1002,6 hPa 0,0 l/m 0,0 km/h (0 Bft) NW 306 0 min 0,000 mm 0 W/m 1,5 C 6,2 C 0,0 km/h (0 Bft) 100 %
03.03.2017 21:00 6,2 C 6,1 C 6,2 C 72 % 1002,6 hPa 0,0 l/m 0,2 km/h (0 Bft) NW 306 0 min 0,025 mm 0 W/m 1,5 C 6,2 C 3,2 km/h (1 Bft) 100 %
03.03.2017 21:10 6,2 C 6,2 C 6,3 C 72 % 1002,5 hPa 0,0 l/m 0,0 km/h (0 Bft) NW 315 0 min 0,000 mm 0 W/m 1,5 C 6,2 C 4,8 km/h (1 Bft) 100 %
03.03.2017 21:20 6,2 C 6,2 C 6,2 C 72 % 1002,5 hPa 0,0 l/m 0,0 km/h (0 Bft) N 0 0 min 0,000 mm 0 W/m 1,5 C 6,2 C 0,0 km/h (0 Bft) 100 %
03.03.2017 21:30 6,0 C 6,0 C 6,2 C 73 % 1002,5 hPa 0,0 l/m 0,0 km/h (0 Bft) NW 315 0 min 0,000 mm 0 W/m 1,5 C 6,0 C 4,8 km/h (1 Bft) 100 %
03.03.2017 21:40 5,9 C 5,9 C 6,0 C 74 % 1002,4 hPa 0,0 l/m 0,0 km/h (0 Bft) N 0 0 min 0,000 mm 0 W/m 1,6 C 5,9 C 0,0 km/h (0 Bft) 100 %
03.03.2017 21:50 5,6 C 5,6 C 5,9 C 75 % 1002,4 hPa 0,0 l/m 0,0 km/h (0 Bft) NW 315 0 min 0,000 mm 0 W/m 1,5 C 5,6 C 4,8 km/h (1 Bft) 100 %
03.03.2017 22:00 5,4 C 5,4 C 5,6 C 76 % 1002,3 hPa 0,0 l/m 0,0 km/h (0 Bft) N 0 0 min 0,025 mm 0 W/m 1,5 C 5,4 C 0,0 km/h (0 Bft) 100 %
03.03.2017 22:10 5,2 C 5,2 C 5,4 C 77 % 1002,3 hPa 0,0 l/m 0,0 km/h (0 Bft) N 0 0 min 0,000 mm 0 W/m 1,5 C 5,2 C 0,0 km/h (0 Bft) 100 %
03.03.2017 22:20 5,1 C 5,1 C 5,2 C 77 % 1002,2 hPa 0,0 l/m 0,0 km/h (0 Bft) NW 315 0 min 0,000 mm 0 W/m 1,4 C 5,1 C 1,6 km/h (1 Bft) 100 %
03.03.2017 22:30 4,9 C 4,9 C 5,1 C 78 % 1002,1 hPa 0,0 l/m 0,0 km/h (0 Bft) NW 315 0 min 0,000 mm 0 W/m 1,4 C 4,9 C 3,2 km/h (1 Bft) 100 %
03.03.2017 22:40 4,7 C 4,7 C 4,9 C 79 % 1001,9 hPa 0,0 l/m 0,0 km/h (0 Bft) NW 315 0 min 0,000 mm 0 W/m 1,4 C 4,7 C 3,2 km/h (1 Bft) 100 %
03.03.2017 22:50 4,6 C 4,6 C 4,7 C 79 % 1001,8 hPa 0,0 l/m 0,0 km/h (0 Bft) NW 315 0 min 0,000 mm 0 W/m 1,3 C 4,6 C 3,2 km/h (1 Bft) 100 %
03.03.2017 23:00 4,3 C 4,3 C 4,6 C 80 % 1001,9 hPa 0,0 l/m 1,6 km/h (1 Bft) NW 315 0 min 0,025 mm 0 W/m 1,2 C 4,3 C 4,8 km/h (1 Bft) 100 %
03.03.2017 23:10 4,2 C 4,2 C 4,3 C 81 % 1001,8 hPa 0,0 l/m 0,0 km/h (0 Bft) NW 315 0 min 0,000 mm 0 W/m 1,2 C 4,2 C 3,2 km/h (1 Bft) 100 %
03.03.2017 23:20 4,1 C 4,1 C 4,2 C 81 % 1001,6 hPa 0,0 l/m 0,0 km/h (0 Bft) N 0 0 min 0,000 mm 0 W/m 1,1 C 4,1 C 0,0 km/h (0 Bft) 100 %
03.03.2017 23:30 3,9 C 3,9 C 4,1 C 82 % 1001,6 hPa 0,0 l/m 0,0 km/h (0 Bft) NW 315 0 min 0,000 mm 0 W/m 1,1 C 3,9 C 3,2 km/h (1 Bft) 100 %
03.03.2017 23:40 3,8 C 3,8 C 4,1 C 82 % 1001,6 hPa 0,0 l/m 0,0 km/h (0 Bft) NW 315 0 min 0,001 mm 0 W/m 1,0 C 3,8 C 0,0 km/h (0 Bft) 100 %
03.03.2017 23:58 3,7 C 3,7 C 3,9 C 82 % 1001,4 hPa 0,0 l/m 0,0 km/h (0 Bft) NW 315 0 min 0,000 mm 0 W/m 0,9 C 3,7 C 0,0 km/h (0 Bft) 100 %
_ Min-Zeit 06:30 06:30 06:20 16:20 23:58 - 00:10 - - - - - 06:10 06:10 00:40 05:10
Minimum _ -0,9 C -0,9 C -0,8 C 47 % 1001,4 hPa - 0,0 km/h (0 Bft) - - - - - -2,2 C -0,8 C 0,0 km/h (0 Bft) 89 %
_ Max-Zeit 16:20 16:30 16:20 06:30 00:00 00:00 12:30 - - 11:31 13:00 12:20 16:50 16:20 13:00 00:40
Maximum _ 11,4 C 11,4 C 11,4 C 91 % 1018,2 hPa 0,0 l/m 8,2 km/h
SO (2 Bft)
- - 11 min 0,228 mm 497 W/m 3,0 C 11,4 C 22,5 km/h
S (4 Bft)
100 %
Durchschnitt _ 5,1 C 5,0 C 5,2 C 72 % 1010,1 hPa #0,0 l/m 1,0 km/h (0 Bft) SO - #5:00 h #1,092 mm 240 W/m 0,1 C 5,0 C 5,2 km/h (1 Bft) 99 %
PRIVATE WETTERSTATION BILLIGHEIM-ALLFELD - www.neckar-odenwald-wetter.de - Holger Sonntag